PATA/TAL METAR and TAF weather

Enter ICAO airport designator
Station Type Date Time Source
PATA METAR 2019/02/21 15:52 UTC NOAA

PATA 211552Z 03003KT 10SM CLR M22/M24 A3002 RMK AO2 SLP174 T12221239 PNO $


Station Type Date Time Source
PATA Decoded METAR 2019/02/21 15:52 UTC NOAA

TANANA CALHOUN MEMORIAL AIRPORT , AK, United States (PATA) 65-10N 152-06W 67M
Feb 21, 2019 - 10:52 AM EST / 2019.02.21 1552 UTC
Wind: from the NNE (030 degrees) at 3 MPH (3 KT):0
Visibility: 10 mile(s):0
Sky conditions: clear
Temperature: -8.0 F (-22.2 C)
Dew Point: -11.0 F (-23.9 C)
Relative Humidity: 86%
Pressure (altimeter): 30.02 in. Hg (1016 hPa)
ob: PATA 211552Z 03003KT 10SM CLR M22/M24 A3002 RMK AO2 SLP174 T12221239 PNO
cycle: 16

Station Type Date Time Source
PATA TAF 2019/02/21 12:36 UTC NOAA

TAF PATA 211133Z 2112/2212 VRB03KT P6SM OVC110
FM212200 10003KT P6SM SCT050 BKN100 BKN200
FM220500 06003KT P6SM VCSH SCT050 SCT100 BKN200


Example: see airport list